Terminal Aerodrome Forecast
Issued by NWS

Current Version | Previous Version | Graphics & Text | Print | Product List | Glossary On
Versions: 1 2 3 4 5 6 7 8 9 10 11 12 13 14 15 16 17 18 19 20 21
257
FTUS41 KPBZ 180530
TAFHLG
TAF
KHLG 180530Z 1806/1906 17005KT P6SM OVC200 WS020/21040KT
     FM180900 19008KT P6SM -RA OVC050 WS020/21040KT
     FM181200 19010KT 4SM -RA BR OVC035 WS020/21045KT
     FM181400 19012G22KT 3SM -SHRA OVC025
     FM181800 19015G25KT P6SM -SHRA OVC035
     FM190000 19015G25KT 3SM SHRA OVC035
     FM190300 27020G30KT 5SM -SHRA OVC015=

USA.gov is the U.S. government's official web portal to all federal, state and local government web resources and services.